createdAt,value
2023-03-10T00:00:39.378Z,3.47
2023-03-10T00:03:06.757Z,4.47
2023-03-10T00:05:34.447Z,3.58
2023-03-10T00:08:01.880Z,4.13
2023-03-10T00:10:29.429Z,4.18
2023-03-10T00:12:57.009Z,4.57
2023-03-10T00:15:26.227Z,3.35
2023-03-10T00:17:55.974Z,3.60
2023-03-10T00:20:23.669Z,3.25
2023-03-10T00:22:51.043Z,3.10
2023-03-10T00:25:18.484Z,2.83
2023-03-10T00:27:45.839Z,3.10
2023-03-10T00:30:13.388Z,2.88
2023-03-10T00:32:40.763Z,3.53
2023-03-10T00:35:08.357Z,3.45
2023-03-10T00:37:39.252Z,4.18
2023-03-10T00:40:10.917Z,3.90
2023-03-10T00:42:38.388Z,4.28
2023-03-10T00:45:06.347Z,3.40
2023-03-10T00:47:33.968Z,3.38
2023-03-10T00:50:01.332Z,3.08
2023-03-10T00:52:32.912Z,2.72
2023-03-10T00:55:00.476Z,3.92
2023-03-10T00:57:27.821Z,3.08
2023-03-10T00:59:55.233Z,3.00
2023-03-10T01:02:22.640Z,2.78
2023-03-10T01:04:50.790Z,3.53
2023-03-10T01:07:18.166Z,2.95
2023-03-10T01:09:45.521Z,3.33
2023-03-10T01:12:12.982Z,3.30
2023-03-10T01:14:40.390Z,3.50
2023-03-10T01:17:08.881Z,3.17
2023-03-10T01:19:36.265Z,3.63
2023-03-10T01:22:03.684Z,3.72
2023-03-10T01:24:31.550Z,3.70
2023-03-10T01:26:58.840Z,4.00
2023-03-10T01:29:27.169Z,3.58
2023-03-10T01:31:56.204Z,3.22
2023-03-10T01:34:23.816Z,3.40
2023-03-10T01:36:51.115Z,3.63
2023-03-10T01:39:18.476Z,3.67
2023-03-10T01:41:45.806Z,3.08
2023-03-10T01:44:23.680Z,3.33
2023-03-10T01:46:54.042Z,3.47
2023-03-10T01:49:44.574Z,3.85
2023-03-10T01:52:20.046Z,3.42
2023-03-10T01:55:07.166Z,3.10
2023-03-10T01:57:39.121Z,3.28
2023-03-10T02:00:14.799Z,2.83
2023-03-10T02:03:09.288Z,4.22
2023-03-10T02:05:53.932Z,3.28
2023-03-10T02:08:23.244Z,2.78
2023-03-10T02:10:52.541Z,3.25
2023-03-10T02:13:19.910Z,3.85
2023-03-10T02:15:48.763Z,3.30
2023-03-10T02:18:18.065Z,2.75
2023-03-10T02:20:55.775Z,4.18
2023-03-10T02:23:34.179Z,3.60
2023-03-10T02:26:11.241Z,4.30
2023-03-10T02:28:38.631Z,3.40
2023-03-10T02:31:06.772Z,3.45
2023-03-10T02:33:36.990Z,3.25
2023-03-10T02:36:13.048Z,3.90
2023-03-10T02:38:40.515Z,3.65
2023-03-10T02:41:25.122Z,3.90
2023-03-10T02:43:55.229Z,3.92
2023-03-10T02:46:27.586Z,3.63
2023-03-10T02:49:00.004Z,3.47
2023-03-10T02:51:37.939Z,3.80
2023-03-10T02:54:10.163Z,3.03
2023-03-10T02:56:38.989Z,3.83
2023-03-10T02:59:07.517Z,3.65
2023-03-10T03:01:37.428Z,3.20
2023-03-10T03:04:06.607Z,3.70
2023-03-10T03:06:34.240Z,2.97
2023-03-10T03:09:02.207Z,3.40
2023-03-10T03:11:31.114Z,3.28
2023-03-10T03:13:59.255Z,3.22
2023-03-10T03:16:27.492Z,4.50
2023-03-10T03:19:00.001Z,3.85
2023-03-10T03:21:27.494Z,3.45
2023-03-10T03:23:55.776Z,3.40
2023-03-10T03:26:27.043Z,3.33
2023-03-10T03:29:20.271Z,3.17
2023-03-10T03:31:47.991Z,3.55
2023-03-10T03:34:20.807Z,2.72
2023-03-10T03:36:52.072Z,2.33
2023-03-10T03:39:24.557Z,3.20
2023-03-10T03:41:57.449Z,3.67
2023-03-10T03:44:28.274Z,3.28
2023-03-10T03:46:57.054Z,3.63
2023-03-10T03:49:25.574Z,3.72
2023-03-10T03:51:52.954Z,3.20
2023-03-10T03:54:22.630Z,3.35
2023-03-10T03:56:50.156Z,3.05
2023-03-10T03:59:18.207Z,3.25
2023-03-10T04:01:45.715Z,1.50
2023-03-10T04:04:13.140Z,2.72
2023-03-10T04:06:41.205Z,3.15
2023-03-10T04:09:10.564Z,2.92
2023-03-10T04:11:38.892Z,3.25
2023-03-10T04:14:06.573Z,2.60
2023-03-10T04:16:34.298Z,3.03
2023-03-10T04:19:03.537Z,2.20
2023-03-10T04:21:30.902Z,3.33
2023-03-10T04:23:59.545Z,2.97
2023-03-10T04:26:31.407Z,3.22
2023-03-10T04:28:59.708Z,2.40
2023-03-10T04:31:28.834Z,2.50
2023-03-10T04:33:57.682Z,2.78
2023-03-10T04:36:25.026Z,3.00
2023-03-10T04:38:56.434Z,3.00
2023-03-10T04:41:29.169Z,2.47
2023-03-10T04:43:56.635Z,2.60
2023-03-10T04:46:24.184Z,2.88
2023-03-10T04:48:51.908Z,2.38
2023-03-10T04:51:20.102Z,1.85
2023-03-10T04:53:52.767Z,2.30
2023-03-10T04:56:21.112Z,2.35
2023-03-10T04:58:48.720Z,1.60
2023-03-10T05:01:16.652Z,2.50
2023-03-10T05:03:50.835Z,2.95
2023-03-10T05:06:21.235Z,2.42
2023-03-10T05:09:04.683Z,2.70
2023-03-10T05:11:33.419Z,2.92
2023-03-10T05:14:08.253Z,2.03
2023-03-10T05:19:06.205Z,2.10
2023-03-10T05:21:34.405Z,2.95
2023-03-10T05:24:02.162Z,3.45
2023-03-10T05:26:32.698Z,2.42
2023-03-10T05:29:01.906Z,2.63
2023-03-10T05:31:38.671Z,2.33
2023-03-10T05:34:11.946Z,2.40
2023-03-10T05:36:39.645Z,2.95
2023-03-10T05:39:09.455Z,3.10
2023-03-10T05:41:41.199Z,2.80
2023-03-10T05:44:09.626Z,2.92
2023-03-10T05:46:38.179Z,3.03
2023-03-10T05:49:05.558Z,2.88
2023-03-10T05:51:33.429Z,2.17
2023-03-10T05:54:02.908Z,2.33
2023-03-10T05:56:32.364Z,3.50
2023-03-10T05:59:02.174Z,2.70
2023-03-10T06:01:42.958Z,3.75
2023-03-10T06:04:10.573Z,3.05
2023-03-10T06:06:38.524Z,2.83
2023-03-10T06:09:05.933Z,3.25
2023-03-10T06:11:33.574Z,2.72
2023-03-10T06:14:01.081Z,2.67
2023-03-10T06:16:28.686Z,3.28
2023-03-10T06:18:57.102Z,4.03
2023-03-10T06:21:25.309Z,2.17
2023-03-10T06:23:52.707Z,2.63
2023-03-10T06:26:20.268Z,3.65
2023-03-10T06:28:48.800Z,2.88
2023-03-10T06:31:19.311Z,2.50
2023-03-10T06:33:47.073Z,2.55
2023-03-10T06:36:15.176Z,3.20
2023-03-10T06:38:42.845Z,3.15
2023-03-10T06:41:10.651Z,3.30
2023-03-10T06:43:38.089Z,3.35
2023-03-10T06:46:08.527Z,3.50
2023-03-10T06:48:36.741Z,2.83
2023-03-10T06:51:15.387Z,2.67
2023-03-10T06:53:42.916Z,2.80
2023-03-10T06:56:20.762Z,2.28
2023-03-10T06:58:48.623Z,3.40
2023-03-10T07:01:33.537Z,2.58
2023-03-10T07:04:01.748Z,2.85
2023-03-10T07:06:29.406Z,2.97
2023-03-10T07:08:56.977Z,2.83
2023-03-10T07:11:25.908Z,2.63
2023-03-10T07:13:54.741Z,2.60
2023-03-10T07:16:22.673Z,2.97
2023-03-10T07:18:50.313Z,3.05
2023-03-10T07:21:19.829Z,2.00
2023-03-10T07:23:47.613Z,2.80
2023-03-10T07:26:15.976Z,2.63
2023-03-10T07:28:43.367Z,2.25
2023-03-10T07:31:12.883Z,2.22
2023-03-10T07:33:41.674Z,2.22
2023-03-10T07:36:12.266Z,2.78
2023-03-10T07:38:40.128Z,2.30
2023-03-10T07:41:11.337Z,1.85
2023-03-10T07:43:38.754Z,1.90
2023-03-10T07:46:07.902Z,1.58
2023-03-10T07:48:35.588Z,2.03
2023-03-10T07:51:03.019Z,1.92
2023-03-10T07:53:31.027Z,2.25
2023-03-10T07:55:58.354Z,1.50
2023-03-10T07:58:25.741Z,2.17
2023-03-10T08:00:57.699Z,1.52
2023-03-10T08:03:26.531Z,1.88
2023-03-10T08:05:54.465Z,2.15
2023-03-10T09:06:04.168Z,2.10
2023-03-10T09:08:32.110Z,1.60
2023-03-10T09:10:59.730Z,1.67
2023-03-10T09:13:27.125Z,1.60
2023-03-10T09:15:54.452Z,1.85
2023-03-10T09:18:21.875Z,1.70
2023-03-10T09:20:49.722Z,1.77
2023-03-10T09:23:17.346Z,1.35
2023-03-10T09:25:44.908Z,1.55
2023-03-10T09:28:12.557Z,1.73
2023-03-10T09:30:42.997Z,1.48
2023-03-10T09:33:21.501Z,1.30
2023-03-10T09:36:06.064Z,1.60
2023-03-10T09:38:35.018Z,1.88
2023-03-10T09:41:16.426Z,1.90
2023-03-10T09:43:50.872Z,1.55
2023-03-10T09:46:45.342Z,1.73
2023-03-10T09:49:17.713Z,1.40
2023-03-10T09:51:48.684Z,1.13
2023-03-10T09:54:36.977Z,1.20
2023-03-10T09:57:22.163Z,1.33
2023-03-10T10:02:25.918Z,1.10
2023-03-10T10:05:03.762Z,0.73
2023-03-10T10:07:49.804Z,1.60
2023-03-10T10:10:20.784Z,1.35
2023-03-10T10:12:52.590Z,1.42
2023-03-10T10:15:25.326Z,2.53
2023-03-10T10:18:18.041Z,1.75
2023-03-10T10:21:42.308Z,1.30
2023-03-10T10:24:10.842Z,1.25
2023-03-10T10:26:38.345Z,1.20
2023-03-10T10:29:17.206Z,1.42
2023-03-10T10:32:05.296Z,1.70
2023-03-10T10:34:33.632Z,1.50
2023-03-10T10:37:01.679Z,1.65
2023-03-10T10:39:31.369Z,1.42
2023-03-10T10:42:25.067Z,1.13
2023-03-10T10:45:04.917Z,1.23
2023-03-10T10:47:43.372Z,1.70
2023-03-10T10:50:24.358Z,1.30
2023-03-10T10:53:16.513Z,0.65
2023-03-10T10:55:45.723Z,1.15
2023-03-10T10:58:28.497Z,0.80
2023-03-10T11:00:58.956Z,0.57
2023-03-10T11:17:50.119Z,0.65
2023-03-10T11:20:27.313Z,0.88
2023-03-10T11:23:06.558Z,1.40
2023-03-10T11:25:42.933Z,0.88
2023-03-10T11:28:51.320Z,1.10
2023-03-10T11:31:26.391Z,0.77
2023-03-10T11:34:11.792Z,0.82
2023-03-10T11:36:56.223Z,1.48
2023-03-10T11:39:32.334Z,1.08
2023-03-10T11:42:28.034Z,1.00
2023-03-10T11:45:23.995Z,1.10
2023-03-10T11:47:54.970Z,0.82
2023-03-10T11:50:51.240Z,1.08
2023-03-10T11:53:50.527Z,1.65
2023-03-10T11:56:22.052Z,1.63
2023-03-10T11:59:06.354Z,1.45
2023-03-10T12:01:56.784Z,1.20
2023-03-10T12:04:43.909Z,1.23
2023-03-10T12:07:39.066Z,1.02
2023-03-10T12:10:12.462Z,1.17
2023-03-10T12:12:45.732Z,1.35
2023-03-10T12:15:36.113Z,1.30
2023-03-10T12:18:05.251Z,1.52
2023-03-10T12:20:35.183Z,1.25
2023-03-10T12:23:11.709Z,1.70
2023-03-10T12:25:39.070Z,1.95
2023-03-10T12:28:18.463Z,1.27
2023-03-10T12:30:47.344Z,1.52
2023-03-10T12:33:39.692Z,1.50
2023-03-10T12:36:33.498Z,2.10
2023-03-10T12:39:22.034Z,1.75
2023-03-10T12:41:53.582Z,1.85
2023-03-10T12:44:36.312Z,1.42
2023-03-10T12:47:19.919Z,1.30
2023-03-10T12:50:12.439Z,2.83
2023-03-10T12:52:45.065Z,1.73
2023-03-10T12:55:21.207Z,2.25
2023-03-10T12:58:22.097Z,1.70
2023-03-10T13:00:59.906Z,1.70
2023-03-10T13:03:32.417Z,1.08
2023-03-10T13:06:23.243Z,1.35
2023-03-10T13:09:20.700Z,1.45
2023-03-10T13:12:00.112Z,2.10
2023-03-10T13:14:39.944Z,1.50
2023-03-10T13:17:20.630Z,1.65
2023-03-10T13:20:06.049Z,1.67
2023-03-10T13:22:34.330Z,2.42
2023-03-10T13:25:04.930Z,1.73
2023-03-10T13:27:34.754Z,1.65
2023-03-10T13:30:17.225Z,1.50
2023-03-10T13:32:56.366Z,2.05
2023-03-10T13:35:36.385Z,2.08
2023-03-10T13:38:19.079Z,1.67
2023-03-10T13:41:03.551Z,2.60
2023-03-10T13:43:45.078Z,2.33
2023-03-10T13:46:31.008Z,1.92
2023-03-10T13:49:07.958Z,1.30
2023-03-10T13:51:37.140Z,2.22
2023-03-10T13:54:23.360Z,2.85
2023-03-10T13:57:23.086Z,2.45
2023-03-10T13:59:52.284Z,2.28
2023-03-10T14:02:30.222Z,2.42
2023-03-10T14:04:58.519Z,2.67
2023-03-10T14:07:31.887Z,3.15
2023-03-10T14:10:07.005Z,2.05
2023-03-10T14:12:54.950Z,3.00
2023-03-10T14:15:26.633Z,1.52
2023-03-10T14:18:09.219Z,2.97
2023-03-10T14:20:36.860Z,3.25
2023-03-10T14:23:19.618Z,2.40
2023-03-10T14:25:48.354Z,3.80
2023-03-10T14:28:34.406Z,4.25
2023-03-10T14:31:02.754Z,4.32
2023-03-10T14:33:32.504Z,3.13
2023-03-10T14:36:01.299Z,2.72
2023-03-10T14:38:30.351Z,1.63
2023-03-10T14:40:58.219Z,2.08
2023-03-10T14:43:27.654Z,1.17
2023-03-10T14:46:11.953Z,2.33
2023-03-10T14:49:03.806Z,1.70
2023-03-10T14:51:38.241Z,1.17
2023-03-10T14:54:22.170Z,1.58
2023-03-10T14:57:03.066Z,1.73
2023-03-10T14:59:40.692Z,1.55
2023-03-10T15:02:23.272Z,1.67
2023-03-10T15:04:53.309Z,1.85
2023-03-10T15:07:21.391Z,1.83
2023-03-10T15:09:50.914Z,1.60
2023-03-10T15:12:22.121Z,2.60
2023-03-10T15:14:55.089Z,1.52
2023-03-10T15:17:24.538Z,1.05
2023-03-10T15:19:55.881Z,1.30
2023-03-10T15:22:32.759Z,1.33
2023-03-10T15:25:00.466Z,1.50
2023-03-10T15:27:28.046Z,1.27
2023-03-10T15:30:08.691Z,1.30
2023-03-10T15:32:41.286Z,1.40
2023-03-10T15:35:32.489Z,2.50
2023-03-10T15:38:04.637Z,1.58
2023-03-10T15:40:33.983Z,1.45
2023-03-10T15:43:01.713Z,1.17
2023-03-10T15:51:25.552Z,1.70
2023-03-10T15:58:34.557Z,1.15
2023-03-10T16:01:21.339Z,1.35
2023-03-10T16:03:51.265Z,1.23
2023-03-10T16:06:18.905Z,1.67
2023-03-10T16:08:47.579Z,1.50
2023-03-10T16:11:17.857Z,0.88
2023-03-10T16:13:46.843Z,1.58
2023-03-10T16:16:14.560Z,1.30
2023-03-10T16:18:42.083Z,0.77
2023-03-10T16:21:10.594Z,1.10
2023-03-10T16:23:38.061Z,1.45
2023-03-10T16:26:11.458Z,0.90
2023-03-10T16:28:42.245Z,0.77
2023-03-10T16:31:11.115Z,1.05
2023-03-10T16:33:38.969Z,0.75
2023-03-10T16:36:09.082Z,1.00
2023-03-10T16:38:36.931Z,0.38
2023-03-10T16:41:04.722Z,0.47
2023-03-10T16:43:33.348Z,0.77
2023-03-10T16:46:30.110Z,1.20
2023-03-10T16:49:10.425Z,1.15
2023-03-10T16:51:42.055Z,0.38
2023-03-10T16:54:18.534Z,0.98
2023-03-10T16:56:51.572Z,0.77
2023-03-10T17:00:32.381Z,0.50
2023-03-10T17:07:26.294Z,0.65
2023-03-10T17:10:27.435Z,0.73
2023-03-10T17:12:55.068Z,0.80
2023-03-10T17:15:23.001Z,1.15
2023-03-10T17:17:55.886Z,0.52
2023-03-10T17:20:23.572Z,0.60
2023-03-10T17:22:51.336Z,0.40
2023-03-10T17:25:19.112Z,0.90
2023-03-10T17:28:14.737Z,0.85
2023-03-10T17:30:42.222Z,0.75
2023-03-10T17:33:10.750Z,0.68
2023-03-10T17:36:18.034Z,0.70
2023-03-10T17:38:45.966Z,1.10
2023-03-10T17:41:16.844Z,0.65
2023-03-10T17:43:44.746Z,1.52
2023-03-10T17:46:55.979Z,1.00
2023-03-10T17:49:24.188Z,1.08
2023-03-10T17:51:51.861Z,1.17
2023-03-10T17:54:21.259Z,0.60
2023-03-10T17:56:49.587Z,0.75
2023-03-10T17:59:18.646Z,1.10
2023-03-10T18:01:47.006Z,1.08
2023-03-10T18:04:14.438Z,0.95
2023-03-10T18:06:42.310Z,1.50
2023-03-10T18:09:13.323Z,1.55
2023-03-10T18:11:40.828Z,0.85
2023-03-10T18:14:08.949Z,1.00
2023-03-10T18:16:39.496Z,0.95
2023-03-10T18:19:10.429Z,1.08
2023-03-10T18:21:38.728Z,1.42
2023-03-10T18:24:06.583Z,0.95
2023-03-10T18:26:35.585Z,1.40
2023-03-10T18:29:03.016Z,0.60
2023-03-10T18:31:32.434Z,1.17
2023-03-10T18:34:00.825Z,1.48
2023-03-10T18:36:29.555Z,1.55
2023-03-10T18:38:58.078Z,1.50
2023-03-10T18:41:27.841Z,0.40
2023-03-10T18:43:55.224Z,0.50
2023-03-10T18:46:22.923Z,0.85
2023-03-10T18:48:55.544Z,0.80
2023-03-10T18:51:24.855Z,0.77
2023-03-10T18:53:55.394Z,0.60
2023-03-10T18:56:25.836Z,0.73
2023-03-10T18:58:53.596Z,0.47
2023-03-10T19:01:21.736Z,0.52
2023-03-10T19:03:49.345Z,0.90
2023-03-10T19:06:16.744Z,0.75
2023-03-10T19:08:44.133Z,1.52
2023-03-10T19:11:12.100Z,0.65
2023-03-10T19:13:40.586Z,0.65
2023-03-10T19:16:09.259Z,0.80
2023-03-10T19:18:37.182Z,0.75
2023-03-10T19:21:05.043Z,0.75
2023-03-10T19:23:35.137Z,0.90
2023-03-10T19:26:03.729Z,1.00
2023-03-10T19:28:31.440Z,0.47
2023-03-10T19:30:58.964Z,0.80
2023-03-10T19:33:26.524Z,0.73
2023-03-10T19:36:05.424Z,0.57
2023-03-10T19:38:35.270Z,0.80
2023-03-10T19:41:06.794Z,1.00
2023-03-10T19:43:35.846Z,0.98
2023-03-10T19:46:05.498Z,1.25
2023-03-10T19:48:33.627Z,0.88
2023-03-10T19:51:01.217Z,0.77
2023-03-10T19:53:32.892Z,0.82
2023-03-10T19:56:03.839Z,0.70
2023-03-10T19:58:31.949Z,1.42
2023-03-10T20:01:00.324Z,0.63
2023-03-10T20:03:30.412Z,1.02
2023-03-10T20:05:58.074Z,1.88
2023-03-10T20:08:25.639Z,0.80
2023-03-10T20:10:53.097Z,0.70
2023-03-10T20:13:20.618Z,1.13
2023-03-10T20:15:48.116Z,1.10
2023-03-10T20:19:22.960Z,0.80
2023-03-10T20:21:51.012Z,0.95
2023-03-10T20:24:20.674Z,2.75
2023-03-10T20:26:48.778Z,1.20
2023-03-10T20:29:16.428Z,1.10
2023-03-10T20:31:44.009Z,0.90
2023-03-10T20:34:18.366Z,0.90
2023-03-10T20:37:04.857Z,1.63
2023-03-10T20:39:32.505Z,1.02
2023-03-10T20:41:59.944Z,1.13
2023-03-10T20:44:27.350Z,0.88
2023-03-10T20:46:54.800Z,1.42
2023-03-10T20:49:22.297Z,1.10
2023-03-10T20:51:49.757Z,2.13
2023-03-10T20:54:17.770Z,1.13
2023-03-10T21:21:18.001Z,1.38
2023-03-10T21:23:45.555Z,1.30
2023-03-10T21:49:30.581Z,1.05
2023-03-10T21:56:28.946Z,1.40
2023-03-10T21:59:02.938Z,1.15
2023-03-10T22:01:30.350Z,1.30
2023-03-10T22:04:12.611Z,1.88
2023-03-10T22:06:40.145Z,1.10
2023-03-10T22:09:07.501Z,1.60
2023-03-10T22:11:36.090Z,0.88
2023-03-10T22:14:04.109Z,0.57
2023-03-10T22:16:31.420Z,2.05
2023-03-10T22:18:58.796Z,0.70
2023-03-10T22:21:26.173Z,0.60
2023-03-10T22:23:53.689Z,0.93
2023-03-10T22:26:21.087Z,0.50
2023-03-10T22:28:48.485Z,0.70
2023-03-10T22:31:15.871Z,0.75
2023-03-10T22:33:43.270Z,0.40
2023-03-10T22:36:13.317Z,0.60
2023-03-10T22:38:40.677Z,1.17
2023-03-10T22:41:11.702Z,0.75
2023-03-10T22:43:39.387Z,0.65
2023-03-10T22:46:15.221Z,0.57
2023-03-10T22:48:43.367Z,0.28
2023-03-10T22:51:17.179Z,0.65
2023-03-10T22:53:46.924Z,0.60
2023-03-10T22:56:14.642Z,0.90
2023-03-10T22:58:42.577Z,0.98
2023-03-10T23:01:10.021Z,1.15
2023-03-10T23:03:37.605Z,0.40
2023-03-10T23:06:06.458Z,1.13
2023-03-10T23:08:37.440Z,0.50
2023-03-10T23:11:12.201Z,0.30
2023-03-10T23:13:40.082Z,0.75
2023-03-10T23:16:07.892Z,1.30
2023-03-10T23:18:35.380Z,0.75
2023-03-10T23:21:03.998Z,1.23
2023-03-10T23:23:31.958Z,0.80
2023-03-10T23:25:59.499Z,0.60
2023-03-10T23:28:26.937Z,0.75
2023-03-10T23:30:54.438Z,1.05
2023-03-10T23:33:23.608Z,0.35
2023-03-10T23:35:53.924Z,0.60
2023-03-10T23:38:25.900Z,0.82
2023-03-10T23:40:54.042Z,0.70
2023-03-10T23:43:22.131Z,0.95
2023-03-10T23:45:49.587Z,1.23
2023-03-10T23:48:18.543Z,1.08
2023-03-10T23:50:47.967Z,0.60
2023-03-10T23:53:17.095Z,0.50
2023-03-10T23:55:46.347Z,0.45
2023-03-10T23:58:16.630Z,0.47
